createdAt,value
2023-04-27T00:02:46.276Z,2.13
2023-04-27T00:08:08.045Z,1.92
2023-04-27T00:13:30.051Z,1.58
2023-04-27T00:18:52.054Z,1.60
2023-04-27T00:24:14.015Z,1.67
2023-04-27T00:29:36.039Z,1.70
2023-04-27T00:34:58.023Z,2.13
2023-04-27T00:40:20.080Z,2.03
2023-04-27T00:45:42.046Z,1.85
2023-04-27T00:51:04.042Z,1.55
2023-04-27T00:56:26.019Z,1.95
2023-04-27T01:01:48.109Z,1.90
2023-04-27T01:07:17.040Z,1.75
2023-04-27T01:12:39.036Z,1.70
2023-04-27T01:18:01.064Z,2.00
2023-04-27T01:23:23.013Z,1.90
2023-04-27T01:28:45.049Z,1.52
2023-04-27T01:34:08.039Z,1.60
2023-04-27T01:39:30.007Z,1.65
2023-04-27T01:44:52.008Z,2.15
2023-04-27T01:50:14.019Z,1.50
2023-04-27T01:55:42.998Z,1.83
2023-04-27T02:01:05.010Z,1.70
2023-04-27T02:06:27.006Z,1.40
2023-04-27T02:11:49.006Z,1.75
2023-04-27T02:17:11.022Z,1.48
2023-04-27T02:22:34.024Z,1.70
2023-04-27T02:27:56.002Z,1.50
2023-04-27T02:33:18.014Z,1.50
2023-04-27T02:38:40.010Z,2.03
2023-04-27T02:44:02.016Z,2.17
2023-04-27T02:49:24.007Z,1.98
2023-04-27T02:54:45.978Z,1.98
2023-04-27T03:00:07.995Z,1.77
2023-04-27T03:05:39.994Z,1.95
2023-04-27T03:11:01.985Z,1.70
2023-04-27T03:16:25.006Z,1.88
2023-04-27T03:21:47.006Z,1.77
2023-04-27T03:27:09.974Z,1.95
2023-04-27T03:32:32.019Z,2.10
2023-04-27T03:37:53.972Z,2.10
2023-04-27T03:43:15.980Z,2.28
2023-04-27T03:48:37.998Z,2.20
2023-04-27T03:53:59.973Z,2.05
2023-04-27T03:59:21.961Z,2.38
2023-04-27T04:04:44.125Z,1.88
2023-04-27T04:10:06.015Z,2.25
2023-04-27T04:15:35.034Z,1.80
2023-04-27T04:20:57.003Z,2.65
2023-04-27T04:26:19.961Z,2.20
2023-04-27T04:31:42.044Z,2.30
2023-04-27T04:37:06.964Z,2.80
2023-04-27T04:42:28.967Z,2.55
2023-04-27T04:47:51.026Z,2.38
2023-04-27T04:53:12.968Z,2.50
2023-04-27T04:58:34.974Z,2.60
2023-04-27T05:03:58.108Z,2.60
2023-04-27T05:09:19.936Z,2.60
2023-04-27T05:14:41.945Z,3.20
2023-04-27T05:20:03.963Z,2.42
2023-04-27T05:25:25.965Z,2.72
2023-04-27T05:30:47.946Z,3.08
2023-04-27T05:36:09.940Z,2.38
2023-04-27T05:41:31.939Z,2.95
2023-04-27T05:46:53.943Z,3.30
2023-04-27T05:52:15.952Z,3.05
2023-04-27T05:57:37.951Z,3.53
2023-04-27T06:03:00.050Z,2.88
2023-04-27T06:08:21.952Z,2.90
2023-04-27T06:13:44.936Z,3.72
2023-04-27T06:19:07.044Z,3.30
2023-04-27T06:24:28.967Z,3.47
2023-04-27T06:29:50.968Z,3.50
2023-04-27T06:35:12.926Z,4.15
2023-04-27T06:40:34.998Z,3.38
2023-04-27T06:45:56.976Z,3.47
2023-04-27T06:51:18.948Z,3.70
2023-04-27T06:56:40.923Z,3.33
2023-04-27T07:02:02.973Z,3.05
2023-04-27T07:07:31.961Z,3.40
2023-04-27T07:12:53.937Z,3.28
2023-04-27T07:18:15.968Z,3.47
2023-04-27T07:23:37.954Z,3.05
2023-04-27T07:29:00.320Z,2.92
2023-04-27T07:34:22.950Z,2.35
2023-04-27T07:39:44.930Z,3.75
2023-04-27T07:45:07.949Z,2.75
2023-04-27T07:50:31.966Z,2.70
2023-04-27T07:55:53.955Z,2.90
2023-04-27T08:01:15.910Z,2.30
2023-04-27T08:06:38.332Z,2.90
2023-04-27T08:12:00.904Z,2.35
2023-04-27T08:17:24.890Z,2.20
2023-04-27T08:22:46.896Z,2.30
2023-04-27T08:28:08.903Z,2.42
2023-04-27T08:33:30.888Z,3.10
2023-04-27T08:38:52.899Z,2.30
2023-04-27T08:44:14.902Z,2.13
2023-04-27T08:49:36.880Z,2.28
2023-04-27T08:54:58.901Z,3.03
2023-04-27T09:00:21.992Z,2.40
2023-04-27T09:05:52.713Z,2.55
2023-04-27T09:11:42.892Z,2.50
2023-04-27T09:17:11.882Z,2.70
2023-04-27T09:22:33.890Z,2.42
2023-04-27T09:27:58.029Z,2.90
2023-04-27T09:33:19.905Z,2.50
2023-04-27T09:38:42.869Z,2.50
2023-04-27T09:44:04.863Z,2.60
2023-04-27T09:49:27.880Z,2.53
2023-04-27T09:54:49.880Z,2.30
2023-04-27T10:00:47.931Z,1.80
2023-04-27T10:06:39.881Z,2.05
2023-04-27T10:12:01.881Z,2.38
2023-04-27T10:17:23.875Z,2.47
2023-04-27T10:22:54.877Z,2.28
2023-04-27T10:28:17.865Z,2.17
2023-04-27T10:33:49.877Z,1.88
2023-04-27T10:39:12.044Z,2.25
2023-04-27T10:44:34.881Z,1.90
2023-04-27T10:49:56.859Z,2.08
2023-04-27T10:55:22.862Z,2.17
2023-04-27T11:00:54.853Z,2.10
2023-04-27T11:06:16.959Z,2.20
2023-04-27T11:11:39.891Z,2.53
2023-04-27T11:17:01.943Z,2.40
2023-04-27T11:22:23.900Z,2.15
2023-04-27T11:27:46.880Z,2.40
2023-04-27T11:33:08.966Z,1.73
2023-04-27T11:38:30.940Z,1.63
2023-04-27T11:43:56.893Z,1.90
2023-04-27T11:49:18.892Z,2.10
2023-04-27T11:54:43.874Z,1.85
2023-04-27T12:00:07.876Z,1.80
2023-04-27T12:05:30.133Z,1.88
2023-04-27T12:10:51.879Z,1.70
2023-04-27T12:16:13.940Z,1.85
2023-04-27T12:21:35.886Z,2.30
2023-04-27T12:26:57.881Z,2.13
2023-04-27T12:32:19.857Z,2.17
2023-04-27T12:37:41.869Z,1.92
2023-04-27T12:43:03.878Z,2.40
2023-04-27T12:48:25.889Z,1.80
2023-04-27T12:53:47.859Z,2.15
2023-04-27T12:59:09.868Z,2.13
2023-04-27T13:04:32.050Z,2.13
2023-04-27T13:09:53.872Z,2.30
2023-04-27T13:15:15.871Z,2.20
2023-04-27T13:20:37.934Z,2.17
2023-04-27T13:25:59.836Z,1.60
2023-04-27T13:31:21.865Z,1.60
2023-04-27T13:36:43.859Z,1.40
2023-04-27T13:42:05.853Z,1.75
2023-04-27T13:47:27.981Z,2.03
2023-04-27T13:52:50.883Z,1.65
2023-04-27T13:58:13.100Z,1.80
2023-04-27T14:03:34.963Z,1.85
2023-04-27T14:09:03.885Z,1.42
2023-04-27T14:14:25.834Z,1.48
2023-04-27T14:19:47.859Z,2.17
2023-04-27T14:25:09.862Z,1.60
2023-04-27T14:30:31.849Z,1.88
2023-04-27T14:35:53.857Z,1.67
2023-04-27T14:41:15.850Z,2.13
2023-04-27T14:46:37.897Z,1.80
2023-04-27T14:51:59.848Z,1.98
2023-04-27T14:57:21.840Z,1.77
2023-04-27T15:02:43.901Z,1.98
2023-04-27T15:08:05.845Z,1.52
2023-04-27T15:13:27.871Z,1.85
2023-04-27T15:18:49.875Z,1.98
2023-04-27T15:24:11.873Z,1.48
2023-04-27T15:29:33.835Z,1.80
2023-04-27T15:34:56.833Z,1.98
2023-04-27T15:40:18.835Z,1.55
2023-04-27T15:45:41.874Z,1.65
2023-04-27T15:51:03.839Z,2.05
2023-04-27T15:56:25.894Z,1.80
2023-04-27T16:01:47.841Z,2.05
2023-04-27T16:07:09.833Z,1.90
2023-04-27T16:12:31.810Z,1.63
2023-04-27T16:17:53.880Z,1.70
2023-04-27T16:23:15.830Z,1.73
2023-04-27T16:28:38.808Z,1.60
2023-04-27T16:34:00.807Z,2.30
2023-04-27T16:39:22.820Z,2.03
2023-04-27T16:44:44.824Z,1.83
2023-04-27T16:50:06.812Z,1.45
2023-04-27T16:55:28.819Z,1.95
2023-04-27T17:00:50.829Z,1.23
2023-04-27T17:06:12.812Z,1.65
2023-04-27T17:11:34.805Z,1.92
2023-04-27T17:16:56.808Z,2.00
2023-04-27T17:22:19.821Z,2.33
2023-04-27T17:27:41.820Z,2.17
2023-04-27T17:33:03.864Z,2.00
2023-04-27T17:38:25.835Z,1.52
2023-04-27T17:43:47.867Z,1.42
2023-04-27T17:49:09.806Z,1.88
2023-04-27T17:54:31.822Z,1.60
2023-04-27T17:59:53.819Z,1.40
2023-04-27T18:05:15.811Z,1.67
2023-04-27T18:10:37.808Z,2.17
2023-04-27T18:15:59.841Z,1.92
2023-04-27T18:21:21.816Z,2.65
2023-04-27T18:26:43.821Z,2.63
2023-04-27T18:32:07.852Z,2.63
2023-04-27T18:37:29.806Z,2.55
2023-04-27T18:42:51.817Z,2.50
2023-04-27T18:48:13.827Z,3.00
2023-04-27T18:53:35.824Z,2.30
2023-04-27T18:58:57.828Z,2.70
2023-04-27T19:04:19.917Z,2.83
2023-04-27T19:09:41.806Z,2.95
2023-04-27T19:15:03.835Z,3.40
2023-04-27T19:20:25.798Z,3.28
2023-04-27T19:25:47.818Z,3.25
2023-04-27T19:31:09.911Z,3.47
2023-04-27T19:36:32.791Z,3.33
2023-04-27T19:41:54.795Z,3.40
2023-04-27T19:47:19.797Z,3.80
2023-04-27T19:52:41.799Z,3.50
2023-04-27T19:58:03.815Z,3.10
2023-04-27T20:03:25.966Z,3.47
2023-04-27T20:08:54.779Z,3.15
2023-04-27T20:14:17.125Z,3.20
2023-04-27T20:19:38.791Z,2.72
2023-04-27T20:25:00.788Z,3.13
2023-04-27T20:30:22.794Z,4.00
2023-04-27T20:35:44.777Z,3.35
2023-04-27T20:41:07.778Z,3.50
2023-04-27T20:46:29.777Z,3.70
2023-04-27T20:51:51.790Z,3.72
2023-04-27T20:57:19.802Z,3.42
2023-04-27T21:02:41.875Z,3.17
2023-04-27T21:08:03.765Z,3.60
2023-04-27T21:13:40.764Z,3.58
2023-04-27T21:19:02.790Z,3.80
2023-04-27T21:24:25.791Z,3.60
2023-04-27T21:29:47.856Z,3.75
2023-04-27T21:35:09.794Z,3.03
2023-04-27T21:40:31.784Z,3.50
2023-04-27T21:45:53.785Z,3.72
2023-04-27T21:51:15.854Z,3.60
2023-04-27T21:56:37.782Z,3.60
2023-04-27T22:01:59.892Z,4.07
2023-04-27T22:07:21.753Z,3.53
2023-04-27T22:12:43.752Z,4.38
2023-04-27T22:18:05.877Z,3.75
2023-04-27T22:23:27.779Z,4.28
2023-04-27T22:28:49.763Z,4.38
2023-04-27T22:34:11.806Z,4.30
2023-04-27T22:39:33.756Z,3.97
2023-04-27T22:44:55.752Z,4.32
2023-04-27T22:50:17.756Z,4.47
2023-04-27T22:55:39.766Z,3.72
2023-04-27T23:01:01.786Z,4.47
2023-04-27T23:06:23.764Z,4.07
2023-04-27T23:11:46.741Z,4.07
2023-04-27T23:17:08.777Z,3.92
2023-04-27T23:22:30.737Z,4.13
2023-04-27T23:27:53.006Z,3.83
2023-04-27T23:33:14.759Z,3.97
2023-04-27T23:38:36.766Z,4.40
2023-04-27T23:43:58.728Z,4.03
2023-04-27T23:49:20.741Z,3.90
2023-04-27T23:54:45.744Z,4.00
